Daichi Yamane

Olheiro-Chefe - Gamba Osaka
6 Ago 2028
Domingo
Processo

Personalidade

Adaptabilidade (4) Ambição (8) Controvérsia (18) Lealdade (7) Pressão (1) Profissionalismo (11) Espírito Esportivo (8) Temperamento (15)

Perfil

Estilo de Treinamento Democrático
Licença Continental A
Determinação 5
Gestão de Pessoas 9
Motivação 11
Disciplina 9
Satisfação no Trabalho
81%
Fadiga
0%
Função Olheiro-Chefe
Salário 28.6K p/s
Contrato 14.03.2029

Desempenho

Comportamento Bom
Eficácia do Treinamento
34%
Desenvolvimento do Jogador
50%
Prevenção de Lesões
45%
Implementação Tática
50%

Eventos Recentes

Avaliou um jogador agora
Participou de uma reunião de recrutamento agora
Recomendou um alvo de transferência agora
Recomendou um alvo de transferência agora
Recomendou um alvo de transferência agora
Recomendou um alvo de transferência agora
Recomendou um alvo de transferência agora
Recomendou um alvo de transferência agora

Monitorando agora

199
Jogador Clube Status Habilidade Confiança Observado Última observação Último voto
Daniel Banjaqui Benfica Ativo 124 / 139 40% 1 31.07.2028 -
Bernardo Lima Porto Ativo 107 / 121 40% 1 31.07.2028 -
Gideon Manaseh Ikorodu City Ativo 96 / 98 40% 2 21.07.2028 -
Jamie Wähling Hibernians Ativo 92 / 96 40% 1 21.07.2028 -
Nicolò Moranduzzo Renate Ativo 85 / 104 40% 1 21.07.2028 -
Dean David Yokohama F. Marinos Ativo 118 / 116 69% 1 14.02.2028 Aprovar
Andrey Ivlev Nizhniy Novgorod Ativo 106 / 115 40% 1 31.01.2028 -
Tyler Fletcher Rotherham United Ativo 116 / 116 40% 1 31.01.2028 -
Tiago Gordillo San Miguel Ativo 91 / 101 40% 1 31.01.2028 -
Jan Bürger Northampton Town Ativo 117 / 124 40% 2 26.01.2028 -
Ivan Borges Defensores Ativo 88 / 84 40% 1 26.01.2028 -
Jin Okumura Shonan Bellmare Ativo 112 / 111 69% 1 24.01.2028 Aprovar
Azizbek To'lqinbekov Bunyodkor Ativo 93 / 105 40% 2 09.01.2028 -
Francisco Machis Llaneros Ativo 82 / 92 40% 1 09.01.2028 -
Ryota Izumori Sagan Tosu Ativo 113 / 112 40% 2 05.01.2028 -
Mauro Silveira Junior Ativo 135 / 123 40% 4 05.01.2028 -
Nahuel Galardi Maipú Ativo 120 / 118 40% 2 05.01.2028 -
Mao Hosoya Santos Ativo 134 / 135 67% 1 05.01.2028 Aprovar
Facundo Torres Millonarios Ativo 134 / 134 67% 1 05.01.2028 Aprovar
Pontus Dahlberg Lillestrom Ativo 112 / 120 40% 2 04.01.2028 -
Josh Keeley Luton Town Ativo 140 / 133 40% 1 04.01.2028 -
Tomoki Hayakawa Kashima Antlers Ativo 140 / 137 40% 4 03.01.2028 -
Thomas Glover Omiya Ardija Ativo 113 / 113 40% 2 03.01.2028 -
Juan Moreno La Luz Ativo 117 / 114 40% 3 02.01.2028 -
Esteban Glellel Quilmes Ativo 117 / 120 40% 2 02.01.2028 -
Juan Pablo Cisternas Antofagasta Ativo 100 / 109 40% 1 02.01.2028 -
Facundo Vila Estudiantes Ativo 108 / 110 40% 2 01.01.2028 -
Emiliano González Almagro Ativo 111 / 118 40% 2 01.01.2028 -
Alejandro Rodríguez Melgar Ativo 122 / 122 40% 1 01.01.2028 -
Matías Arias Vélez Ativo 102 / 123 40% 4 31.12.2027 -
Luciano Jachfe Nueva Chicago Ativo 122 / 114 40% 2 31.12.2027 -
Bautista Carboni Defensores Unidos Ativo 114 / 109 40% 2 31.12.2027 -
Ani Ozoemena Rivers United Ativo 112 / 110 40% 1 31.12.2027 -
Iván Villar Granada Ativo 146 / 135 40% 1 31.12.2027 -
Abdulrahman Hamisu Niger Tornadoes Ativo 93 / 94 40% 1 31.12.2027 -
Rafael Moreno Atletico Venezuela Ativo 110 / 113 40% 5 29.12.2027 -
Christ Wawa Gefle Ativo 115 / 109 40% 3 29.12.2027 -
Ibrahim Fullah Charlton Athletic Ativo 123 / 130 40% 2 29.12.2027 -
Lautaro Petruchi Gimnasia y Esgrima Ativo 107 / 119 40% 1 29.12.2027 -
Nupe Godstime Bayelsa United Ativo 79 / 102 40% 4 28.12.2027 -
Matias Siltanen Malmo FF Ativo 125 / 125 40% 3 28.12.2027 -
Dylan Cabral Arsenal Ativo 101 / 108 40% 3 26.12.2027 -
Bruno Antúnez Boston River Ativo 124 / 122 40% 2 26.12.2027 -
Vincent Edafe Warri Wolves Ativo 102 / 106 40% 1 26.12.2027 -
Francisco Salerno Defensores Unidos Ativo 103 / 107 40% 1 26.12.2027 -
Dilan Godoy Beitar Jerusalem Ativo 126 / 116 40% 1 26.12.2027 -
Jeremías Merlo Gimnasia La Plata Ativo 134 / 120 40% 5 25.12.2027 -
David Eke Enyimba Ativo 94 / 92 40% 4 25.12.2027 -
Lucas Arcanjo Vitória Ativo 132 / 128 40% 2 23.12.2027 -
Federico Losas Chacarita Juniors Ativo 109 / 112 40% 1 23.12.2027 -
Iñaki Peña Urawa Reds Ativo 149 / 142 40% 2 22.12.2027 -
Nicolás Barros Schelotto Gimnasia La Plata Ativo 112 / 130 40% 2 21.12.2027 -
Nahuel Pezzini Arsenal Ativo 113 / 111 40% 1 21.12.2027 -
Alex Verón Vélez Ativo 113 / 124 40% 5 20.12.2027 -
Josh Nichols Oldham Athletic Ativo 131 / 123 40% 1 20.12.2027 -
Emmanuel Ndubueze Shooting Stars Ativo 87 / 103 40% 3 18.12.2027 -
Roberto Ramírez Godoy Cruz Ativo 123 / 122 40% 2 18.12.2027 -
Renzo Bacchia Racing Ativo 131 / 116 40% 1 17.12.2027 -
Luka Andrade Montevideo City Torque Ativo 104 / 107 40% 3 16.12.2027 -
Seb Ferdinand Rotherham United Ativo 120 / 128 40% 1 14.12.2027 -
Rio Ngumoha Plymouth Argyle Ativo 127 / 141 40% 1 14.12.2027 -
Kaique Kenji Fortaleza Ativo 116 / 125 40% 1 14.12.2027 -
Chimobi Igwilo Rangers International Ativo 87 / 102 40% 2 13.12.2027 -
Luighi Palmeiras Ativo 118 / 113 40% 1 13.12.2027 -
Keisuke Osako Sanfrecce Hiroshima Ativo 149 / 139 40% 1 12.12.2027 -
Mauro Casoli Talleres Ativo 103 / 104 40% 1 12.12.2027 -
Mateo Peralta Danubio Ativo 114 / 115 40% 3 10.12.2027 -
Kerim Alajbegović Modena Ativo 136 / 130 40% 1 10.12.2027 -
Gonzalo Falcón Cienciano Ativo 105 / 123 40% 1 08.12.2027 -
Cristopher Varela Deportivo La Guaira Ativo 128 / 129 40% 1 08.12.2027 -
John Amah Plateau United Ativo 95 / 101 40% 1 08.12.2027 -
Geovanni Banguera Deportivo Pasto Ativo 112 / 123 40% 1 06.12.2027 -
Nicolás Sumavil Platense Ativo 115 / 122 40% 1 06.12.2027 -
Joel Ezra Enyimba Ativo 92 / 99 40% 4 30.11.2027 -
Kabiru Abdullahi Barau Ativo 82 / 93 40% 3 30.11.2027 -
Valentino Acuña Newell's Old Boys Ativo 105 / 118 40% 2 28.11.2027 -
Ryan McAidoo Oldham Athletic Ativo 110 / 128 40% 1 28.11.2027 -
Maren Kefas Plateau United Ativo 94 / 90 40% 2 26.11.2027 -
Albert Aleksanjan IFK Norrkoping Ativo 91 / 108 40% 1 22.11.2027 -
Hassan Beja AFC Leopards Ativo 93 / 97 40% 1 19.11.2027 -
Onyeuche Ujunwa Ikorodu City Ativo 82 / 101 40% 4 17.11.2027 -
Keyano Marrah Hammarby Ativo 100 / 96 40% 1 17.11.2027 -
Giovanni Baroni Talleres Ativo 113 / 121 40% 2 16.11.2027 -
Adrian Skogmar Malmo FF Ativo 115 / 124 40% 4 11.11.2027 -
Victor Hernandez Santa Fe Ativo 128 / 126 40% 5 10.11.2027 -
Tiago Pucciarelli IF Elfsborg Ativo 97 / 101 40% 1 09.11.2027 -
Tomás Aranda Boca Juniors Ativo 105 / 118 40% 1 08.11.2027 -
Siyabonga Mabena Bidvest Wits Ativo 112 / 120 40% 1 07.11.2027 -
Lucas Camejo River Plate Ativo 89 / 91 40% 2 06.11.2027 -
Juan Rodríguez Cerro Largo Ativo 89 / 104 40% 1 01.11.2027 -
Nahuel Leivas Montevideo City Torque Ativo 109 / 107 40% 1 07.10.2027 -
Issa Yusuf Shooting Stars Ativo 96 / 95 40% 1 07.10.2027 -
Yiandro Raap Ilves Ativo 95 / 100 40% 2 20.09.2027 -
Alejandro Leiva Patronato Ativo 105 / 104 40% 2 20.09.2027 -
Felipe Faúndez O'Higgins Ativo 106 / 102 40% 2 18.09.2027 -
Yerry Gonzalez Universitario Popayan Ativo 91 / 88 40% 1 16.09.2027 -
Nazareno Roselli Defensa y Justicia Ativo 105 / 122 40% 1 16.09.2027 -
Jon Esenga IF Elfsborg Ativo 97 / 102 40% 1 15.09.2027 -
José Cavadia Aguilas Doradas Ativo 105 / 119 40% 1 15.09.2027 -
Yury Oyarzo Racing Ativo 79 / 94 40% 1 14.09.2027 -
Hosea Michael Remo Stars Ativo 77 / 92 40% 1 14.09.2027 -
Godwin Oham Warri Wolves Ativo 98 / 89 40% 1 11.09.2027 -
Mohamed Moussa Koïta Mathare United Ativo 89 / 107 40% 1 09.09.2027 -
Olaniyi Saheed Kwara United Ativo 99 / 106 40% 1 09.09.2027 -
Ignacio Fernández Boston River Ativo 90 / 100 40% 1 09.09.2027 -
Luciano Posadas Central Córdoba SdE Ativo 90 / 94 40% 1 07.09.2027 -
Mpho Khethang FC Diarra Ativo 84 / 89 40% 1 07.09.2027 -
Chibueze Oputa Rangers International Ativo 100 / 86 40% 1 06.09.2027 -
Giovanni Leoni Lincoln City Ativo 136 / 137 40% 1 06.09.2027 -
Pedro de la Vega Columbus Crew Ativo 133 / 134 66% 1 22.07.2027 Aprovar
Tiago Freitas Benfica Ativo 115 / 114 40% 1 08.02.2027 -
Kamaldeen Atiemo Wa All Stars Ativo 108 / 100 40% 1 08.02.2027 -
Miguel Figueiredo Benfica Ativo 115 / 117 40% 1 03.02.2027 -
Sampson Dweh Mallorca Ativo 133 / 134 66% 1 05.01.2027 Aprovar
Samuel Edozie Southampton Ativo 117 / 134 40% 1 04.01.2027 -
Richard Koné Queens Park Rangers Ativo 115 / 128 40% 1 03.01.2027 -
Ivan Schranz Slavia Prague Ativo 141 / 134 40% 2 01.01.2027 -
Bamba Dieng Crvena Zvezda Ativo 139 / 125 40% 4 01.01.2027 -
Ilyas Ansah Hull City Ativo 136 / 134 40% 4 01.01.2027 -
Peter Shalulile Mamelodi Sundowns Ativo 128 / 125 40% 6 31.12.2026 Observar
Bosun Lawal Stoke City Ativo 129 / 118 40% 1 31.12.2026 -
Malik Mothersille Stockport County Ativo 107 / 109 40% 1 29.12.2026 -
Callum Robinson Poltava Ativo 121 / 106 40% 4 28.12.2026 -
Joe Gelhardt Hull City Ativo 133 / 135 40% 3 28.12.2026 -
Tyrhys Dolan Espanyol Ativo 125 / 131 40% 2 28.12.2026 -
Emmanuel Boateng Hapoel Tel Aviv Ativo 113 / 118 40% 1 28.12.2026 -
Welington Southampton Ativo 127 / 123 40% 1 27.12.2026 -
Sam Bell Bristol City Ativo 116 / 116 40% 1 25.12.2026 -
Juan Bisanz Huracán Ativo 119 / 135 40% 1 24.12.2026 -
Scott Twine Bristol City Ativo 110 / 122 40% 1 24.12.2026 -
Reda Khadra Qarabag Ativo 139 / 139 40% 1 24.12.2026 -
Alfie Doughty Millwall Ativo 116 / 124 40% 1 23.12.2026 -
Oswin Appollis Orlando Pirates Ativo 123 / 116 40% 1 23.12.2026 -
Josh Windass Wrexham Ativo 118 / 130 40% 1 21.12.2026 -
Matej Trusa DAC Dunajska Streda Ativo 111 / 118 40% 1 19.12.2026 -
Tyreece Campbell Charlton Athletic Ativo 123 / 121 40% 1 18.12.2026 -
Kyle Wootton Stockport County Ativo 121 / 129 40% 1 18.12.2026 -
Cameron Archer Southampton Ativo 122 / 122 40% 1 17.12.2026 -
Tariq Lamptey Queens Park Rangers Ativo 140 / 140 40% 1 15.12.2026 -
Finn Azaz Southampton Ativo 133 / 134 40% 1 15.12.2026 -
Bongani Khune SuperSport United Ativo 134 / 129 40% 5 13.12.2026 -
Youssoufa Moukoko FC Copenhagen Ativo 118 / 137 40% 1 13.12.2026 -
Marezi Portsmouth Ativo 121 / 115 40% 1 12.12.2026 -
Jhon Córdoba Krasnodar Ativo 152 / 142 40% 1 10.12.2026 -
Petar Stanić Ludogorets Ativo 136 / 144 40% 1 09.12.2026 -
Milan van Ewijk Coventry City Ativo 126 / 126 40% 1 08.12.2026 -
Patrick Agyemang Derby County Ativo 120 / 113 40% 2 07.12.2026 -
Federico Martínez MFK Ruzomberok Ativo 113 / 123 40% 1 02.12.2026 -
Elijah Adebayo Luton Town Ativo 129 / 119 40% 1 02.12.2026 -
Ola Solbakken FC Nordsjaelland Ativo 129 / 119 40% 1 29.11.2026 -
Heung-Min Son Los Angeles Football Club Ativo 153 / 144 40% 5 26.11.2026 -
Dale Taylor Blackpool Ativo 100 / 116 40% 1 26.11.2026 -
Zian Flemming Ipswich Town Ativo 141 / 138 40% 1 23.11.2026 -
Etiosa Ighodaro Kaizer Chiefs Ativo 100 / 111 40% 1 20.11.2026 -
Petter Nosa Dahl Rapid Wien Ativo 115 / 127 40% 1 19.11.2026 -
Bienvenue Kanakimana Zbrojovka Brno Ativo 115 / 119 40% 1 19.11.2026 -
Morgan Guilavogui Real Salt Lake Ativo 135 / 133 40% 6 18.11.2026 -
Ivo Mammini Beitar Jerusalem Ativo 112 / 125 40% 1 18.11.2026 -
Václav Jurečka Banik Ostrava Ativo 127 / 123 40% 1 18.11.2026 -
Assad Al Hamlawi Universitatea Craiova Ativo 136 / 116 40% 1 15.11.2026 -
Fiete Arp OB Ativo 122 / 130 40% 1 15.11.2026 -
Takuma Asano Sanfrecce Hiroshima Ativo 131 / 136 40% 3 14.11.2026 -
Wessam Abou Ali Columbus Crew Ativo 121 / 134 40% 1 14.11.2026 -
Yuta Goke Vissel Kobe Ativo 114 / 125 40% 3 13.11.2026 -
Luka Jović CFR Cluj Ativo 147 / 132 40% 1 13.11.2026 -
Armstrong Oko-Flex Levski Ativo 127 / 113 40% 1 09.11.2026 -
Haris Tabaković Red Bull Salzburg Ativo 136 / 140 40% 1 08.11.2026 -
Vegard Erlien Tromso Ativo 117 / 127 40% 1 06.11.2026 -
Daniel Karlsbakk Sarpsborg 08 Ativo 112 / 132 40% 1 06.11.2026 -
Marko Livaja Hajduk Split Ativo 125 / 123 40% 2 03.11.2026 -
Koki Ogawa Jubilo Iwata Ativo 124 / 116 40% 3 27.10.2026 -
Daiya Tono Yokohama F. Marinos Ativo 133 / 127 40% 1 26.10.2026 -
Myrto Uzuni Austin FC Ativo 137 / 135 40% 3 25.10.2026 -
Jesus Ferreira Seattle Sounders Ativo 132 / 138 40% 2 23.10.2026 -
Martín Ojeda Orlando City Ativo 134 / 137 40% 4 21.10.2026 -
Petar Musa FC Dallas Ativo 125 / 143 40% 2 19.10.2026 -
Teruhito Nakagawa FC Tokyo Ativo 122 / 121 40% 1 19.10.2026 -
Cheikh Sabaly Vancouver Whitecaps Ativo 139 / 123 40% 1 16.10.2026 -
Alexey Miranchuk Atlanta United FC Ativo 141 / 151 40% 3 14.10.2026 -
Shu Morooka Avispa Fukuoka Ativo 106 / 116 40% 1 13.10.2026 -
Dejan Joveljić Seattle Sounders Ativo 130 / 133 40% 1 10.10.2026 -
Talles Magno New York City Ativo 116 / 134 40% 2 09.10.2026 -
Shunta Araki Vegalta Sendai Ativo 121 / 109 40% 1 07.10.2026 -
Daiju Sasaki Vissel Kobe Ativo 121 / 124 40% 1 03.10.2026 -
Carles Gil New England Revolution Ativo 146 / 145 40% 1 30.09.2026 -
Timo Werner San Jose Earthquakes Ativo 117 / 118 40% 1 28.09.2026 -
Erison Kawasaki Frontale Ativo 138 / 127 40% 1 27.09.2026 -
Victor Olatunji Real Salt Lake Ativo 106 / 117 40% 3 26.09.2026 -
Tadeo Allende Inter Miami CF Ativo 134 / 128 40% 2 23.09.2026 -
Mbekezeli Mbokazi Chicago Fire Ativo 116 / 123 40% 1 19.09.2026 -
Yoshinori Muto Vissel Kobe Ativo 131 / 127 40% 1 19.09.2026 -
Alexander Aravena Portland Timbers Ativo 125 / 125 40% 1 18.09.2026 -
João Klauss LA Galaxy Ativo 114 / 119 40% 1 16.09.2026 -
Bénie Traoré New York City Ativo 129 / 126 40% 1 12.09.2026 -
Kelvin Yeboah Minnesota United FC Ativo 114 / 117 40% 1 10.09.2026 -
Marcos Junior Sanfrecce Hiroshima Ativo 119 / 127 40% 1 09.09.2026 -
Lewis Morgan Toronto FC Ativo 136 / 133 40% 1 07.09.2026 -
Alonso Martínez New York City Ativo 109 / 118 40% 1 03.08.2026 -
Yuki Kakita Kashima Antlers Ativo 128 / 135 40% 1 03.08.2026 -